createdAt,value
2023-04-11T00:01:16.358Z,100.00
2023-04-11T00:03:47.023Z,100.00
2023-04-11T00:06:27.594Z,100.00
2023-04-11T00:08:58.236Z,100.00
2023-04-11T00:11:29.114Z,100.00
2023-04-11T00:14:02.224Z,100.00
2023-04-11T00:16:34.550Z,100.00
2023-04-11T00:19:09.545Z,100.00
2023-04-11T00:21:49.302Z,100.00
2023-04-11T00:24:19.696Z,100.00
2023-04-11T00:27:10.460Z,100.00
2023-04-11T00:29:41.487Z,100.00
2023-04-11T00:32:25.752Z,100.00
2023-04-11T00:34:59.204Z,100.00
2023-04-11T00:37:36.421Z,100.00
2023-04-11T00:40:12.302Z,100.00
2023-04-11T00:42:42.853Z,100.00
2023-04-11T00:45:14.984Z,100.00
2023-04-11T00:47:48.264Z,100.00
2023-04-11T00:50:25.111Z,100.00
2023-04-11T00:52:58.011Z,100.00
2023-04-11T00:55:28.769Z,100.00
2023-04-11T00:58:09.977Z,100.00
2023-04-11T01:00:51.616Z,100.00
2023-04-11T01:03:25.727Z,100.00
2023-04-11T01:05:57.009Z,100.00
2023-04-11T01:08:31.279Z,100.00
2023-04-11T01:11:00.757Z,100.00
2023-04-11T01:13:35.978Z,100.00
2023-04-11T01:16:07.274Z,100.00
2023-04-11T01:18:38.632Z,100.00
2023-04-11T01:21:12.275Z,100.00
2023-04-11T01:23:42.878Z,100.00
2023-04-11T01:26:13.626Z,100.00
2023-04-11T01:28:54.034Z,100.00
2023-04-11T01:31:24.781Z,100.00
2023-04-11T01:33:57.819Z,100.00
2023-04-11T01:36:32.290Z,100.00
2023-04-11T01:39:02.913Z,100.00
2023-04-11T01:41:35.091Z,100.00
2023-04-11T01:44:06.161Z,100.00
2023-04-11T01:46:40.126Z,100.00
2023-04-11T01:49:10.836Z,100.00
2023-04-11T01:51:44.337Z,100.00
2023-04-11T01:54:17.549Z,100.00
2023-04-11T01:56:48.366Z,100.00
2023-04-11T01:59:19.581Z,100.00
2023-04-11T02:01:56.004Z,100.00
2023-04-11T02:04:28.066Z,100.00
2023-04-11T02:07:01.476Z,100.00
2023-04-11T02:09:32.134Z,100.00
2023-04-11T02:12:05.884Z,100.00
2023-04-11T02:14:56.548Z,100.00
2023-04-11T02:17:34.347Z,100.00
2023-04-11T02:20:07.045Z,100.00
2023-04-11T02:22:37.475Z,100.00
2023-04-11T02:25:28.268Z,100.00
2023-04-11T02:27:58.971Z,100.00
2023-04-11T02:30:51.089Z,100.00
2023-04-11T02:33:32.782Z,100.00
2023-04-11T02:36:06.497Z,100.00
2023-04-11T02:38:45.778Z,100.00
2023-04-11T02:41:19.430Z,100.00
2023-04-11T02:43:59.446Z,100.00
2023-04-11T02:46:43.131Z,100.00
2023-04-11T02:49:12.785Z,100.00
2023-04-11T02:51:43.670Z,100.00
2023-04-11T02:54:16.803Z,100.00
2023-04-11T02:56:52.772Z,100.00
2023-04-11T02:59:36.221Z,100.00
2023-04-11T03:02:07.167Z,100.00
2023-04-11T03:04:37.940Z,100.00
2023-04-11T03:07:14.512Z,100.00
2023-04-11T03:09:45.769Z,100.00
2023-04-11T03:12:16.302Z,100.00
2023-04-11T03:14:54.963Z,100.00
2023-04-11T03:17:45.771Z,100.00
2023-04-11T03:20:19.570Z,100.00
2023-04-11T03:23:02.249Z,100.00
2023-04-11T03:25:37.747Z,100.00
2023-04-11T03:28:08.961Z,100.00
2023-04-11T03:30:48.913Z,100.00
2023-04-11T03:33:22.645Z,100.00
2023-04-11T03:35:56.389Z,100.00
2023-04-11T03:38:27.290Z,100.00
2023-04-11T03:41:01.150Z,100.00
2023-04-11T03:43:51.866Z,100.00
2023-04-11T03:46:21.845Z,100.00
2023-04-11T03:48:55.763Z,100.00
2023-04-11T03:51:27.711Z,100.00
2023-04-11T03:54:06.271Z,100.00
2023-04-11T03:56:39.773Z,100.00
2023-04-11T03:59:13.129Z,100.00
2023-04-11T04:02:08.366Z,100.00
2023-04-11T04:04:43.517Z,100.00
2023-04-11T04:07:24.113Z,100.00
2023-04-11T04:09:57.718Z,100.00
2023-04-11T04:12:38.344Z,100.00
2023-04-11T04:15:15.041Z,100.00
2023-04-11T04:17:48.556Z,100.00
2023-04-11T04:20:34.859Z,100.00
2023-04-11T04:23:08.296Z,100.00
2023-04-11T04:25:52.590Z,100.00
2023-04-11T04:28:46.096Z,100.00
2023-04-11T04:31:22.325Z,100.00
2023-04-11T04:33:53.382Z,100.00
2023-04-11T04:36:28.605Z,100.00
2023-04-11T04:39:10.681Z,100.00
2023-04-11T04:41:43.381Z,100.00
2023-04-11T04:44:17.458Z,100.00
2023-04-11T04:47:00.366Z,100.00
2023-04-11T04:49:34.154Z,100.00
2023-04-11T04:52:27.301Z,100.00
2023-04-11T04:54:59.293Z,100.00
2023-04-11T04:57:49.979Z,100.00
2023-04-11T05:00:26.111Z,100.00
2023-04-11T05:03:00.218Z,100.00
2023-04-11T05:05:34.351Z,100.00
2023-04-11T05:08:25.965Z,100.00
2023-04-11T05:10:59.511Z,100.00
2023-04-11T05:13:34.812Z,100.00
2023-04-11T05:16:17.739Z,100.00
2023-04-11T05:18:58.351Z,100.00
2023-04-11T05:21:49.100Z,100.00
2023-04-11T05:24:22.145Z,100.00
2023-04-11T05:27:13.456Z,100.00
2023-04-11T05:29:46.862Z,100.00
2023-04-11T05:32:26.663Z,100.00
2023-04-11T05:35:09.085Z,100.00
2023-04-11T05:37:58.274Z,100.00
2023-04-11T05:40:33.681Z,100.00
2023-04-11T05:43:06.991Z,100.00
2023-04-11T05:45:45.507Z,100.00
2023-04-11T05:48:26.083Z,100.00
2023-04-11T05:50:57.083Z,100.00
2023-04-11T05:53:44.194Z,100.00
2023-04-11T05:56:23.833Z,100.00
2023-04-11T05:58:54.385Z,100.00
2023-04-11T06:01:26.369Z,100.00
2023-04-11T06:03:57.727Z,100.00
2023-04-11T06:06:28.730Z,100.00
2023-04-11T06:08:59.141Z,100.00
2023-04-11T06:11:32.047Z,100.00
2023-04-11T06:14:02.648Z,100.00
2023-04-11T06:16:38.911Z,100.00
2023-04-11T06:19:09.952Z,100.00
2023-04-11T06:21:42.703Z,100.00
2023-04-11T06:24:19.150Z,100.00
2023-04-11T06:26:50.672Z,100.00
2023-04-11T06:29:43.654Z,100.00
2023-04-11T06:32:16.758Z,100.00
2023-04-11T06:34:52.382Z,100.00
2023-04-11T06:37:26.329Z,100.00
2023-04-11T06:39:59.614Z,100.00
2023-04-11T06:42:33.052Z,100.00
2023-04-11T06:45:15.483Z,100.00
2023-04-11T06:47:44.539Z,100.00
2023-04-11T06:50:28.153Z,100.00
2023-04-11T06:52:58.977Z,100.00
2023-04-11T06:55:29.600Z,100.00
2023-04-11T06:58:03.119Z,100.00
2023-04-11T07:00:42.087Z,100.00
2023-04-11T07:03:15.756Z,100.00
2023-04-11T07:05:50.700Z,100.00
2023-04-11T07:08:24.354Z,100.00
2023-04-11T07:10:55.091Z,100.00
2023-04-11T07:13:35.994Z,100.00
2023-04-11T07:16:07.466Z,97.66
2023-04-11T07:18:40.833Z,98.24
2023-04-11T07:21:14.402Z,97.93
2023-04-11T07:23:52.671Z,95.07
2023-04-11T07:26:27.079Z,95.75
2023-04-11T07:28:59.164Z,97.41
2023-04-11T07:31:29.880Z,98.55
2023-04-11T07:34:00.712Z,92.09
2023-04-11T07:36:31.596Z,91.26
2023-04-11T07:39:09.458Z,93.45
2023-04-11T07:41:40.814Z,89.32
2023-04-11T07:44:35.033Z,91.20
2023-04-11T07:47:16.931Z,92.36
2023-04-11T07:50:09.077Z,91.17
2023-04-11T07:52:39.678Z,84.51
2023-04-11T07:55:14.181Z,87.02
2023-04-11T07:57:44.709Z,87.09
2023-04-11T08:00:47.994Z,85.25
2023-04-11T08:03:17.703Z,84.72
2023-04-11T08:05:49.886Z,85.56
2023-04-11T08:08:31.355Z,85.54
2023-04-11T08:11:24.890Z,84.28
2023-04-11T08:13:55.780Z,81.03
2023-04-11T08:16:49.120Z,81.62
2023-04-11T08:19:25.818Z,80.38
2023-04-11T08:22:16.479Z,81.29
2023-04-11T08:24:47.196Z,80.21
2023-04-11T08:27:45.360Z,80.40
2023-04-11T08:30:20.308Z,76.64
2023-04-11T08:32:51.113Z,75.28
2023-04-11T08:35:24.748Z,73.44
2023-04-11T08:37:57.641Z,69.87
2023-04-11T08:40:28.982Z,70.96
2023-04-11T08:43:12.406Z,70.25
2023-04-11T08:45:43.657Z,67.63
2023-04-11T08:48:25.470Z,68.48
2023-04-11T08:50:58.624Z,65.53
2023-04-11T08:53:30.445Z,66.13
2023-04-11T08:56:00.915Z,67.82
2023-04-11T08:58:32.447Z,67.99
2023-04-11T09:01:32.179Z,63.67
2023-04-11T09:04:12.770Z,64.68
2023-04-11T09:07:00.537Z,65.08
2023-04-11T09:09:32.443Z,64.75
2023-04-11T09:12:03.617Z,64.79
2023-04-11T09:14:42.122Z,64.04
2023-04-11T09:17:14.439Z,64.86
2023-04-11T09:19:47.549Z,63.03
2023-04-11T09:22:19.448Z,61.88
2023-04-11T09:25:04.649Z,60.69
2023-04-11T09:27:35.434Z,58.69
2023-04-11T09:30:06.898Z,58.43
2023-04-11T09:32:37.565Z,58.94
2023-04-11T09:35:15.589Z,58.19
2023-04-11T09:37:48.487Z,59.45
2023-04-11T09:40:20.519Z,59.29
2023-04-11T09:42:57.657Z,59.09
2023-04-11T09:45:29.322Z,61.08
2023-04-11T09:48:02.377Z,65.42
2023-04-11T09:50:34.207Z,69.46
2023-04-11T09:53:06.937Z,75.18
2023-04-11T09:55:41.165Z,79.50
2023-04-11T09:58:23.600Z,80.62
2023-04-11T10:00:55.248Z,82.58
2023-04-11T10:03:27.698Z,84.28
2023-04-11T10:05:59.167Z,84.43
2023-04-11T10:09:11.419Z,85.21
2023-04-11T10:11:46.548Z,85.84
2023-04-11T10:14:47.174Z,84.92
2023-04-11T10:17:28.102Z,82.23
2023-04-11T10:20:24.478Z,82.37
2023-04-11T10:23:05.174Z,81.23
2023-04-11T10:25:51.615Z,81.39
2023-04-11T10:28:39.239Z,77.98
2023-04-11T10:31:14.238Z,76.41
2023-04-11T10:34:15.262Z,75.39
2023-04-11T10:37:06.265Z,76.27
2023-04-11T10:40:10.393Z,74.37
2023-04-11T10:42:45.634Z,74.65
2023-04-11T10:45:25.030Z,73.19
2023-04-11T10:48:08.042Z,74.29
2023-04-11T10:50:42.191Z,70.98
2023-04-11T10:53:36.414Z,65.66
2023-04-11T10:56:07.744Z,62.66
2023-04-11T10:58:38.772Z,63.25
2023-04-11T11:01:31.497Z,59.18
2023-04-11T11:04:09.264Z,62.03
2023-04-11T11:06:47.233Z,64.68
2023-04-11T11:09:26.528Z,62.87
2023-04-11T11:12:10.163Z,63.01
2023-04-11T11:14:42.782Z,61.57
2023-04-11T11:17:15.639Z,57.39
2023-04-11T11:19:48.461Z,55.21
2023-04-11T11:22:25.554Z,52.52
2023-04-11T11:25:08.191Z,49.73
2023-04-11T11:27:38.628Z,46.75
2023-04-11T11:30:15.769Z,45.42
2023-04-11T11:32:46.123Z,44.93
2023-04-11T11:35:16.676Z,44.54
2023-04-11T11:37:47.474Z,45.09
2023-04-11T11:40:19.223Z,44.25
2023-04-11T11:42:50.973Z,43.98
2023-04-11T11:45:23.363Z,43.82
2023-04-11T11:47:53.695Z,44.45
2023-04-11T11:50:29.815Z,46.02
2023-04-11T11:53:14.984Z,47.25
2023-04-11T11:55:48.332Z,47.55
2023-04-11T11:58:19.801Z,47.96
2023-04-11T12:00:52.843Z,48.43
2023-04-11T12:03:29.914Z,48.62
2023-04-11T12:06:00.983Z,47.72
2023-04-11T12:08:45.664Z,49.52
2023-04-11T12:11:18.694Z,48.90
2023-04-11T12:13:55.076Z,47.88
2023-04-11T12:16:26.883Z,48.66
2023-04-11T12:19:06.033Z,48.05
2023-04-11T12:21:37.222Z,47.79
2023-04-11T12:24:11.236Z,46.60
2023-04-11T12:29:32.676Z,43.91
2023-04-11T12:32:04.014Z,42.56
2023-04-11T12:34:34.587Z,39.68
2023-04-11T12:37:05.089Z,39.07
2023-04-11T12:39:35.510Z,38.94
2023-04-11T12:42:06.599Z,38.72
2023-04-11T12:44:36.084Z,38.38
2023-04-11T12:47:07.013Z,38.86
2023-04-11T12:49:37.795Z,38.18
2023-04-11T12:52:09.157Z,38.06
2023-04-11T12:54:39.691Z,37.88
2023-04-11T12:57:12.466Z,38.56
2023-04-11T12:59:43.119Z,39.02
2023-04-11T13:02:13.942Z,38.76
2023-04-11T13:04:44.990Z,37.48
2023-04-11T13:07:15.585Z,38.01
2023-04-11T13:09:46.227Z,37.91
2023-04-11T13:12:16.875Z,39.00
2023-04-11T13:14:47.362Z,38.95
2023-04-11T13:17:17.828Z,38.76
2023-04-11T13:19:48.247Z,38.49
2023-04-11T13:22:19.013Z,39.53
2023-04-11T13:24:49.614Z,39.56
2023-04-11T13:27:20.216Z,37.55
2023-04-11T13:29:50.771Z,35.04
2023-04-11T13:32:21.468Z,34.74
2023-04-11T13:34:52.300Z,34.83
2023-04-11T13:37:23.171Z,34.63
2023-04-11T13:39:53.694Z,35.48
2023-04-11T13:42:24.130Z,37.29
2023-04-11T13:44:54.544Z,38.16
2023-04-11T13:47:25.069Z,37.32
2023-04-11T13:49:55.659Z,36.62
2023-04-11T13:52:26.149Z,37.41
2023-04-11T13:54:56.428Z,37.42
2023-04-11T13:57:28.508Z,38.30
2023-04-11T13:59:59.228Z,38.44
2023-04-11T14:02:30.013Z,40.52
2023-04-11T14:05:01.079Z,41.60
2023-04-11T14:07:31.951Z,40.43
2023-04-11T14:10:02.456Z,40.50
2023-04-11T14:12:35.642Z,41.70
2023-04-11T14:15:07.749Z,42.66
2023-04-11T14:17:38.462Z,42.51
2023-04-11T14:20:11.808Z,42.57
2023-04-11T14:22:43.670Z,42.71
2023-04-11T14:25:15.734Z,41.38
2023-04-11T14:27:46.224Z,41.50
2023-04-11T14:30:17.083Z,39.85
2023-04-11T14:32:47.756Z,38.99
2023-04-11T14:35:18.401Z,39.38
2023-04-11T14:37:49.714Z,38.67
2023-04-11T14:40:20.648Z,36.20
2023-04-11T14:42:53.568Z,35.47
2023-04-11T14:45:24.153Z,35.84
2023-04-11T14:47:54.964Z,35.41
2023-04-11T14:50:27.006Z,35.81
2023-04-11T14:52:58.653Z,35.97
2023-04-11T14:55:31.788Z,36.05
2023-04-11T14:58:02.916Z,35.41
2023-04-11T15:00:33.696Z,34.49
2023-04-11T15:03:04.742Z,32.25
2023-04-11T15:05:35.268Z,31.56
2023-04-11T15:08:06.044Z,31.49
2023-04-11T15:10:36.869Z,32.45
2023-04-11T15:13:09.112Z,33.03
2023-04-11T15:15:39.959Z,34.65
2023-04-11T15:18:25.430Z,35.29
2023-04-11T15:20:56.937Z,35.49
2023-04-11T15:23:27.735Z,36.31
2023-04-11T15:25:59.949Z,37.10
2023-04-11T15:28:35.966Z,36.17
2023-04-11T15:31:09.119Z,35.71
2023-04-11T15:33:39.940Z,36.06
2023-04-11T15:36:11.644Z,35.51
2023-04-11T15:38:42.182Z,34.26
2023-04-11T15:41:13.144Z,34.28
2023-04-11T15:43:43.973Z,34.38
2023-04-11T15:46:14.588Z,34.87
2023-04-11T15:48:45.185Z,33.98
2023-04-11T15:51:17.382Z,34.71
2023-04-11T15:53:48.394Z,35.44
2023-04-11T15:56:19.943Z,36.11
2023-04-11T15:58:51.730Z,35.92
2023-04-11T16:01:40.472Z,36.89
2023-04-11T16:04:12.015Z,37.38
2023-04-11T16:06:42.750Z,37.15
2023-04-11T16:09:13.330Z,36.52
2023-04-11T16:11:43.660Z,36.44
2023-04-11T16:14:14.335Z,37.19
2023-04-11T16:16:47.585Z,38.45
2023-04-11T16:19:18.265Z,38.61
2023-04-11T16:21:49.104Z,38.78
2023-04-11T16:24:19.897Z,37.75
2023-04-11T16:26:50.343Z,37.45
2023-04-11T16:29:20.940Z,37.51
2023-04-11T16:31:51.621Z,37.70
2023-04-11T16:34:22.233Z,38.18
2023-04-11T16:36:53.001Z,37.77
2023-04-11T16:39:23.725Z,38.55
2023-04-11T16:41:55.919Z,38.88
2023-04-11T16:44:34.772Z,38.65
2023-04-11T16:47:05.862Z,38.57
2023-04-11T16:49:36.962Z,39.22
2023-04-11T16:52:11.902Z,39.61
2023-04-11T16:54:42.311Z,39.28
2023-04-11T16:57:13.171Z,39.97
2023-04-11T16:59:43.874Z,39.71
2023-04-11T17:02:14.414Z,40.10
2023-04-11T17:04:45.423Z,40.91
2023-04-11T17:07:16.251Z,40.79
2023-04-11T17:09:49.920Z,41.33
2023-04-11T17:12:21.089Z,40.52
2023-04-11T17:14:55.960Z,40.50
2023-04-11T17:17:26.636Z,40.72
2023-04-11T17:19:59.670Z,40.79
2023-04-11T17:22:30.462Z,40.27
2023-04-11T17:25:00.924Z,40.08
2023-04-11T17:27:31.542Z,40.38
2023-04-11T17:30:02.265Z,39.99
2023-04-11T17:32:32.936Z,40.20
2023-04-11T17:35:04.437Z,40.88
2023-04-11T17:37:37.826Z,41.28
2023-04-11T17:40:14.331Z,41.82
2023-04-11T17:42:45.816Z,42.21
2023-04-11T17:45:18.530Z,41.29
2023-04-11T17:48:00.131Z,41.39
2023-04-11T17:50:29.629Z,41.71
2023-04-11T17:53:00.621Z,41.72
2023-04-11T17:55:31.744Z,41.97
2023-04-11T17:58:05.856Z,42.40
2023-04-11T18:00:57.330Z,42.84
2023-04-11T18:03:28.651Z,43.33
2023-04-11T18:06:11.398Z,43.93
2023-04-11T18:08:51.145Z,44.33
2023-04-11T18:11:22.356Z,44.96
2023-04-11T18:13:52.826Z,45.68
2023-04-11T18:16:23.840Z,46.25
2023-04-11T18:18:54.542Z,46.10
2023-04-11T18:21:25.034Z,46.55
2023-04-11T18:24:15.789Z,47.02
2023-04-11T18:26:47.089Z,47.51
2023-04-11T18:29:16.095Z,47.69
2023-04-11T18:31:46.672Z,48.16
2023-04-11T18:34:19.781Z,48.33
2023-04-11T18:36:51.236Z,49.24
2023-04-11T18:39:42.641Z,50.01
2023-04-11T18:42:15.720Z,50.29
2023-04-11T18:44:46.736Z,50.55
2023-04-11T18:47:19.801Z,51.15
2023-04-11T18:49:50.455Z,51.28
2023-04-11T18:52:20.993Z,52.30
2023-04-11T18:54:51.550Z,53.55
2023-04-11T18:57:21.959Z,54.37
2023-04-11T19:00:04.250Z,55.41
2023-04-11T19:02:35.696Z,55.90
2023-04-11T19:05:13.696Z,55.62
2023-04-11T19:07:45.783Z,56.33
2023-04-11T19:10:27.458Z,56.59
2023-04-11T19:12:58.079Z,55.99
2023-04-11T19:15:28.976Z,55.92
2023-04-11T19:18:00.836Z,55.96
2023-04-11T19:20:36.547Z,56.03
2023-04-11T19:23:11.746Z,56.97
2023-04-11T19:25:42.884Z,57.90
2023-04-11T19:28:13.572Z,58.75
2023-04-11T19:30:44.259Z,59.67
2023-04-11T19:33:14.829Z,60.38
2023-04-11T19:35:52.878Z,60.96
2023-04-11T19:38:34.799Z,61.58
2023-04-11T19:41:14.862Z,61.95
2023-04-11T19:43:46.000Z,62.24
2023-04-11T19:46:18.215Z,61.97
2023-04-11T19:48:51.673Z,63.11
2023-04-11T19:51:22.298Z,63.47
2023-04-11T19:53:52.953Z,63.73
2023-04-11T19:56:23.839Z,63.90
2023-04-11T19:58:54.305Z,64.31
2023-04-11T20:01:25.117Z,64.24
2023-04-11T20:03:58.433Z,63.92
2023-04-11T20:06:35.000Z,64.46
2023-04-11T20:09:08.700Z,63.28
2023-04-11T20:11:39.289Z,63.28
2023-04-11T20:14:10.229Z,63.68
2023-04-11T20:16:44.072Z,63.43
2023-04-11T20:19:15.141Z,63.91
2023-04-11T20:21:46.727Z,63.84
2023-04-11T20:24:17.615Z,64.40
2023-04-11T20:26:48.350Z,64.66
2023-04-11T20:29:21.302Z,64.45
2023-04-11T20:31:51.847Z,64.96
2023-04-11T20:34:22.498Z,65.03
2023-04-11T20:36:53.341Z,64.59
2023-04-11T20:39:24.022Z,64.12
2023-04-11T20:41:56.629Z,63.83
2023-04-11T20:44:27.684Z,63.04
2023-04-11T20:46:58.302Z,62.64
2023-04-11T20:49:31.797Z,62.57
2023-04-11T20:52:02.687Z,62.29
2023-04-11T20:54:33.638Z,62.39
2023-04-11T20:57:04.828Z,63.13
2023-04-11T20:59:35.586Z,64.21
2023-04-11T21:02:06.418Z,64.74
2023-04-11T21:04:37.304Z,65.94
2023-04-11T21:07:15.834Z,66.71
2023-04-11T21:10:08.471Z,67.06
2023-04-11T21:12:39.425Z,67.60
2023-04-11T21:15:12.000Z,67.50
2023-04-11T21:17:42.655Z,67.74
2023-04-11T21:20:19.453Z,68.23
2023-04-11T21:22:52.991Z,68.64
2023-04-11T21:25:24.390Z,68.82
2023-04-11T21:27:53.547Z,69.12
2023-04-11T21:30:27.123Z,69.25
2023-04-11T21:32:57.730Z,69.14
2023-04-11T21:35:31.251Z,69.46
2023-04-11T21:38:01.807Z,69.72
2023-04-11T21:40:32.537Z,69.81
2023-04-11T21:43:03.274Z,70.75
2023-04-11T21:45:34.106Z,70.24
2023-04-11T21:48:05.185Z,70.44
2023-04-11T21:50:36.777Z,70.62
2023-04-11T21:53:07.444Z,70.76
2023-04-11T21:55:38.199Z,70.82
2023-04-11T21:58:28.696Z,71.17
2023-04-11T22:01:03.748Z,71.42
2023-04-11T22:03:33.255Z,71.40
2023-04-11T22:06:04.036Z,71.19
2023-04-11T22:08:38.412Z,71.23
2023-04-11T22:11:10.526Z,71.56
2023-04-11T22:13:40.926Z,71.27
2023-04-11T22:16:14.171Z,71.28
2023-04-11T22:18:48.991Z,71.44
2023-04-11T22:21:21.045Z,71.38
2023-04-11T22:23:54.363Z,71.48
2023-04-11T22:26:29.489Z,71.43
2023-04-11T22:29:02.766Z,71.60
2023-04-11T22:31:38.482Z,71.58
2023-04-11T22:34:09.517Z,71.62
2023-04-11T22:36:40.107Z,71.58
2023-04-11T22:39:10.848Z,71.78
2023-04-11T22:41:41.467Z,71.76
2023-04-11T22:44:12.008Z,71.88
2023-04-11T22:47:06.760Z,72.13
2023-04-11T22:49:46.093Z,71.60
2023-04-11T22:52:19.055Z,72.03
2023-04-11T22:54:49.692Z,72.10
2023-04-11T22:57:20.154Z,72.25
2023-04-11T22:59:50.670Z,72.19
2023-04-11T23:02:21.397Z,72.12
2023-04-11T23:04:52.175Z,72.23
2023-04-11T23:07:33.309Z,72.26
2023-04-11T23:10:06.023Z,72.65
2023-04-11T23:12:37.151Z,72.52
2023-04-11T23:15:09.765Z,72.99
2023-04-11T23:17:40.299Z,72.96
2023-04-11T23:20:22.257Z,72.87
2023-04-11T23:22:52.752Z,73.02
2023-04-11T23:25:25.643Z,72.90
2023-04-11T23:27:56.147Z,72.99
2023-04-11T23:30:26.908Z,73.00
2023-04-11T23:32:57.441Z,73.42
2023-04-11T23:35:31.629Z,72.78
2023-04-11T23:38:02.854Z,72.70
2023-04-11T23:40:33.538Z,72.74
2023-04-11T23:43:04.199Z,72.18
2023-04-11T23:45:35.542Z,72.15
2023-04-11T23:48:08.974Z,71.78
2023-04-11T23:50:52.706Z,71.84
2023-04-11T23:53:23.250Z,71.65
2023-04-11T23:55:54.278Z,71.29
2023-04-11T23:58:24.651Z,70.87
